New York, New York
Traffic Map
Current Weather Conditions
New York, New York
Overcast
Overcast
68°
Feels Like: 68°
Wind Chill: 68° Ceiling: 2500
Heat Index: 68° Visibility: mi
Dew Point: 61° Wind: 3mph
Humidity: 78% Direction: ° ()
Pressure: 30.27in Gusts: 0mph
Raw Report DataKNYC 211351Z AUTO VRB03KT BKN025 OVC031 20/16 A3027 RMK AO2 SLP241 T02000161 $
Traffic Incident Summary
Active as of:
Severity:
Category:
InformationThere was an issue retrieving the traffic information for this location. Please try a different location or try again shortly.
Advertisements